BCN weather

Public forecast

Using degrees Celsius for public forecast. Weather courtesy of forecast.io.

Current aviation weather report (METAR) for Barcelona International Airport

Retrieved 2020/08/15 01:30 UTC (21 minutes ago):

LEBL 150130Z 33003KT 310V010 9999 FEW018 24/21 Q1014 NOSIG

Aviation forecast (TAF) for Barcelona International Airport

Retrieved 2020-08-15 00:27 UTC (1 hour ago):

TAF LEBL 142300Z 1500/1524 34005KT 9999 FEW020 TX30/1512Z TN22/1506Z TEMPO 1504/1509 34010G20KT BECMG 1509/1511 20010KT BECMG 1519/1521 VRB03KT